Time;durP1;ratioP1;P1;durP2;ratioP2;P2;SDS_P1;SDS_P2;PMS_P1;PMS_P2;Temp;Humidity;BMP_temperature;BMP_pressure;BME280_temperature;BME280_humidity;BME280_pressure;Samples;Min_cycle;Max_cycle;Signal;HPM_P1;HPM_P2
2023/09/05 00:01:57;;;;;;;3.60;2.50;;;23.80;95.70;;;;;;5039209;28;20275;-82
2023/09/05 00:04:24;;;;;;;3.20;2.60;;;23.90;95.70;;;;;;5038268;28;20271;-82
2023/09/05 00:06:50;;;;;;;3.30;2.60;;;23.80;95.70;;;;;;5054347;28;20577;-82
2023/09/05 00:09:18;;;;;;;2.70;2.30;;;23.80;95.70;;;;;;5036579;28;20169;-82
2023/09/05 00:11:45;;;;;;;3.63;2.30;;;23.80;95.80;;;;;;5036402;28;20182;-82
2023/09/05 00:14:11;;;;;;;2.40;2.20;;;23.80;95.80;;;;;;5037576;28;20172;-82
2023/09/05 00:16:38;;;;;;;2.57;2.37;;;23.70;95.70;;;;;;5036777;28;20172;-82
2023/09/05 00:19:05;;;;;;;3.43;2.60;;;23.70;95.70;;;;;;5037767;28;20168;-82
2023/09/05 00:21:30;;;;;;;2.53;2.33;;;23.70;95.70;;;;;;5037605;28;20203;-82
2023/09/05 00:24:33;;;;;;;2.67;2.20;;;23.70;95.70;;;;;;5037963;28;20168;-82
2023/09/05 00:27:01;;;;;;;2.70;2.17;;;23.70;95.70;;;;;;5036736;28;20198;-82
2023/09/05 00:29:30;;;;;;;2.83;2.50;;;23.70;95.80;;;;;;5037208;28;20172;-82
2023/09/05 00:31:58;;;;;;;2.50;2.20;;;23.70;95.70;;;;;;5037270;28;20206;-82
2023/09/05 00:34:36;;;;;;;2.50;2.30;;;23.80;95.70;;;;;;5037631;28;20172;-82
2023/09/05 00:37:05;;;;;;;3.10;2.53;;;23.80;95.60;;;;;;5038618;28;20274;-82
2023/09/05 00:39:34;;;;;;;2.87;2.37;;;23.70;95.70;;;;;;5055181;28;20412;-82
2023/09/05 00:42:03;;;;;;;2.60;2.20;;;23.70;95.70;;;;;;5038158;28;20273;-81
2023/09/05 00:44:29;;;;;;;2.37;2.17;;;23.70;95.80;;;;;;5038053;28;20271;-82
2023/09/05 00:46:58;;;;;;;2.40;2.20;;;23.70;95.80;;;;;;5038194;28;20260;-82
2023/09/05 00:49:27;;;;;;;2.60;2.10;;;23.70;95.80;;;;;;5037850;28;20168;-82
2023/09/05 00:51:57;;;;;;;2.40;2.00;;;23.70;95.70;;;;;;5038877;28;20608;-82
2023/09/05 00:54:23;;;;;;;2.73;2.03;;;23.70;95.70;;;;;;5038447;28;20576;-82
2023/09/05 00:56:49;;;;;;;2.43;2.07;;;23.70;95.70;;;;;;5037061;28;20198;-81
2023/09/05 00:59:16;;;;;;;2.87;2.23;;;23.70;95.70;;;;;;5038481;28;20183;-82
2023/09/05 01:01:42;;;;;;;3.13;2.20;;;23.60;95.70;;;;;;5055661;28;20287;-82
2023/09/05 01:04:13;;;;;;;2.50;2.20;;;23.70;95.70;;;;;;5037886;28;20263;-82
2023/09/05 01:06:59;;;;;;;2.77;2.33;;;23.70;95.70;;;;;;5055442;28;20160;-82
2023/09/05 01:09:39;;;;;;;2.20;2.00;;;23.60;95.70;;;;;;5036104;28;20214;-82
2023/09/05 01:12:07;;;;;;;2.20;2.00;;;23.60;95.70;;;;;;5052471;28;20699;-82
2023/09/05 01:14:33;;;;;;;2.90;2.00;;;23.60;95.60;;;;;;5024697;28;20169;-82
2023/09/05 01:17:01;;;;;;;2.37;2.00;;;23.60;95.70;;;;;;5037573;28;20177;-82
2023/09/05 01:19:34;;;;;;;2.27;2.07;;;23.60;95.60;;;;;;5037142;28;20546;-81
2023/09/05 01:22:13;;;;;;;3.03;2.40;;;23.60;95.70;;;;;;5036742;28;20295;-82
2023/09/05 01:24:40;;;;;;;2.37;2.00;;;23.60;95.70;;;;;;5070263;28;20168;-82
2023/09/05 01:27:08;;;;;;;2.30;1.90;;;23.60;95.70;;;;;;5038936;28;20176;-82
2023/09/05 01:29:35;;;;;;;2.77;2.10;;;23.60;95.70;;;;;;5055542;28;20169;-82
2023/09/05 01:32:02;;;;;;;2.50;2.13;;;23.60;95.60;;;;;;5038312;28;20172;-82
2023/09/05 01:34:30;;;;;;;2.33;2.10;;;23.50;95.60;;;;;;5055965;28;20171;-82
2023/09/05 01:36:57;;;;;;;2.03;1.80;;;23.50;95.70;;;;;;5038540;28;20554;-82
2023/09/05 01:39:22;;;;;;;1.87;1.77;;;23.50;95.70;;;;;;5037392;28;20652;-82
2023/09/05 01:41:48;;;;;;;2.20;2.00;;;23.50;95.70;;;;;;5038278;28;20238;-82
2023/09/05 01:44:15;;;;;;;2.20;2.00;;;23.60;95.70;;;;;;5037794;28;20593;-82
2023/09/05 01:46:41;;;;;;;2.10;1.90;;;23.50;95.60;;;;;;5055636;28;20585;-82
2023/09/05 01:49:06;;;;;;;3.13;2.40;;;23.60;95.70;;;;;;5054614;28;20169;-82
2023/09/05 01:51:35;;;;;;;2.10;1.90;;;23.50;95.60;;;;;;5054527;28;20534;-82
2023/09/05 01:54:03;;;;;;;2.33;1.87;;;23.50;95.60;;;;;;5037299;28;20168;-82
2023/09/05 01:56:28;;;;;;;2.50;2.10;;;23.50;95.60;;;;;;5055096;28;20176;-82
2023/09/05 01:58:54;;;;;;;2.47;2.00;;;23.50;95.60;;;;;;5038281;28;20176;-82
2023/09/05 02:01:35;;;;;;;2.20;1.90;;;23.50;95.60;;;;;;5037775;28;20204;-82
2023/09/05 02:04:01;;;;;;;2.67;1.87;;;23.50;95.60;;;;;;5054135;28;20286;-82
2023/09/05 02:06:26;;;;;;;2.43;2.03;;;23.50;95.60;;;;;;5036561;28;20267;-82
2023/09/05 02:08:54;;;;;;;3.13;2.43;;;23.50;95.60;;;;;;5037455;28;20176;-81
2023/09/05 02:11:20;;;;;;;2.07;1.87;;;23.50;95.60;;;;;;5036604;28;20316;-82
2023/09/05 02:13:46;;;;;;;2.13;1.93;;;23.50;95.60;;;;;;5036741;28;20184;-82
2023/09/05 02:16:18;;;;;;;2.10;1.90;;;23.40;95.60;;;;;;5036823;28;20172;-82
2023/09/05 02:18:46;;;;;;;2.93;2.10;;;23.50;95.50;;;;;;5035807;28;20172;-82
2023/09/05 02:21:12;;;;;;;2.27;2.07;;;23.50;95.60;;;;;;5067496;28;20496;-82
2023/09/05 02:23:37;;;;;;;2.13;1.90;;;23.50;95.50;;;;;;5035668;28;20169;-81
2023/09/05 02:26:03;;;;;;;2.43;2.00;;;23.50;95.60;;;;;;5036380;28;20183;-81
2023/09/05 02:28:29;;;;;;;2.00;1.80;;;23.40;95.60;;;;;;5036329;28;20292;-82
2023/09/05 02:30:57;;;;;;;2.30;1.93;;;23.40;95.50;;;;;;5052562;28;20187;-82
2023/09/05 02:33:23;;;;;;;2.07;1.87;;;23.40;95.50;;;;;;5034963;28;20179;-81
2023/09/05 02:35:49;;;;;;;2.23;2.03;;;23.40;95.50;;;;;;5069236;28;20183;-82
2023/09/05 02:38:16;;;;;;;4.83;2.00;;;23.40;95.50;;;;;;5035551;28;20557;-82
2023/09/05 02:40:48;;;;;;;2.20;1.93;;;23.40;95.50;;;;;;5035266;28;20204;-82
2023/09/05 02:43:14;;;;;;;2.10;1.90;;;23.40;95.60;;;;;;5034855;28;20348;-82
2023/09/05 02:45:40;;;;;;;2.10;1.90;;;23.40;95.60;;;;;;5034888;28;20184;-82
2023/09/05 02:48:07;;;;;;;2.33;1.90;;;23.40;95.50;;;;;;5052940;28;20199;-81
2023/09/05 02:50:33;;;;;;;2.97;2.00;;;23.40;95.60;;;;;;5035033;28;20569;-82
2023/09/05 02:52:59;;;;;;;1.90;1.70;;;23.40;95.50;;;;;;5033963;28;20187;-82
2023/09/05 02:55:24;;;;;;;2.23;2.03;;;23.40;95.50;;;;;;5032941;28;20195;-82
2023/09/05 02:57:51;;;;;;;2.10;1.90;;;23.40;95.50;;;;;;5034089;28;20334;-82
2023/09/05 03:00:19;;;;;;;2.10;1.90;;;23.30;95.60;;;;;;5034782;28;20183;-82
2023/09/05 03:02:49;;;;;;;2.10;1.90;;;23.30;95.60;;;;;;5035921;28;20261;-82
2023/09/05 03:05:15;;;;;;;2.40;1.87;;;23.20;95.60;;;;;;5052587;28;20164;-82
2023/09/05 03:07:41;;;;;;;2.40;2.03;;;23.20;95.70;;;;;;5052368;28;20642;-82
2023/09/05 03:10:07;;;;;;;2.07;1.87;;;23.20;95.80;;;;;;5035366;28;20168;-81
2023/09/05 03:12:33;;;;;;;2.23;1.80;;;23.20;95.70;;;;;;5036282;28;20183;-81
2023/09/05 03:14:58;;;;;;;2.20;2.00;;;23.20;95.70;;;;;;5036192;28;20176;-81
2023/09/05 03:17:24;;;;;;;2.17;1.80;;;23.20;95.70;;;;;;5034796;28;20168;-81
2023/09/05 03:19:50;;;;;;;2.40;2.03;;;23.20;95.70;;;;;;5052646;28;20171;-82
2023/09/05 03:22:17;;;;;;;2.10;1.90;;;23.10;95.70;;;;;;5035309;28;20604;-82
2023/09/05 03:24:42;;;;;;;2.33;1.80;;;23.20;95.70;;;;;;5034993;28;20178;-81
2023/09/05 03:27:08;;;;;;;1.73;1.63;;;23.10;95.60;;;;;;5034913;28;20165;-82
2023/09/05 03:29:34;;;;;;;2.40;1.70;;;23.10;95.60;;;;;;5036306;28;20475;-82
2023/09/05 03:32:01;;;;;;;2.23;1.97;;;23.10;95.60;;;;;;5036057;28;20565;-82
2023/09/05 03:34:27;;;;;;;2.70;2.00;;;23.10;95.70;;;;;;5053923;28;20248;-82
2023/09/05 03:36:52;;;;;;;2.00;1.80;;;23.10;95.60;;;;;;5036323;28;20172;-82
2023/09/05 03:39:18;;;;;;;2.00;1.80;;;23.00;95.60;;;;;;5034766;28;20186;-82
2023/09/05 03:41:45;;;;;;;2.70;2.10;;;23.00;95.70;;;;;;5053111;28;20286;-82
2023/09/05 03:44:11;;;;;;;2.10;1.90;;;23.00;95.70;;;;;;5034385;28;20200;-82
2023/09/05 03:46:36;;;;;;;2.10;1.73;;;23.00;95.60;;;;;;5034530;28;20207;-82
2023/09/05 03:49:02;;;;;;;2.10;1.90;;;23.00;95.50;;;;;;5033999;28;20255;-82
2023/09/05 03:51:32;;;;;;;2.67;2.03;;;23.00;95.60;;;;;;5051928;28;20169;-82
2023/09/05 03:54:01;;;;;;;2.57;1.90;;;23.00;95.50;;;;;;5035992;28;20177;-82
2023/09/05 03:56:27;;;;;;;2.07;1.90;;;23.00;95.50;;;;;;5036024;28;20187;-82
2023/09/05 03:58:53;;;;;;;2.20;1.77;;;23.00;95.50;;;;;;5051869;28;20180;-82
2023/09/05 04:01:19;;;;;;;2.70;1.83;;;23.00;95.40;;;;;;5052294;28;20206;-82
2023/09/05 04:03:45;;;;;;;2.23;1.70;;;23.00;95.30;;;;;;5034842;28;20275;-81
2023/09/05 04:06:11;;;;;;;2.50;1.80;;;23.00;95.30;;;;;;5035384;28;20263;-82
2023/09/05 04:08:37;;;;;;;1.93;1.80;;;23.00;95.30;;;;;;5035470;28;20176;-82
2023/09/05 04:11:03;;;;;;;2.30;1.80;;;23.00;95.30;;;;;;5035483;28;20211;-82
2023/09/05 04:13:29;;;;;;;2.00;1.80;;;22.90;95.30;;;;;;5035577;28;20176;-82
2023/09/05 04:16:00;;;;;;;2.13;1.90;;;22.90;95.30;;;;;;5039941;28;20191;-82
2023/09/05 04:18:26;;;;;;;1.90;1.70;;;23.00;95.20;;;;;;5056449;28;20275;-82
2023/09/05 04:20:58;;;;;;;2.47;1.97;;;23.00;95.30;;;;;;5039380;28;20556;-82
2023/09/05 04:23:25;;;;;;;2.10;1.90;;;22.90;95.20;;;;;;5056078;28;20192;-82
2023/09/05 04:26:01;;;;;;;2.33;1.70;;;22.90;95.30;;;;;;5038370;28;20557;-81
2023/09/05 04:28:28;;;;;;;2.20;1.90;;;22.90;95.30;;;;;;5039322;28;20245;-82
2023/09/05 04:30:55;;;;;;;2.90;1.93;;;22.90;95.30;;;;;;5038542;28;20229;-81
2023/09/05 04:33:31;;;;;;;1.77;1.60;;;22.90;95.30;;;;;;5038315;28;20486;-82
2023/09/05 04:35:57;;;;;;;2.23;2.00;;;22.90;95.20;;;;;;5050962;28;20172;-81
2023/09/05 04:38:24;;;;;;;1.80;1.60;;;22.90;95.30;;;;;;5035915;28;20690;-81
2023/09/05 04:40:50;;;;;;;2.20;2.00;;;22.90;95.20;;;;;;5034755;28;20192;-81
2023/09/05 04:43:15;;;;;;;1.87;1.73;;;22.90;95.30;;;;;;5037766;28;20194;-82
2023/09/05 04:45:41;;;;;;;2.10;1.83;;;22.90;95.30;;;;;;5037447;28;20279;-82
2023/09/05 04:48:10;;;;;;;2.00;1.80;;;22.90;95.40;;;;;;5038462;28;20180;-81
2023/09/05 04:50:36;;;;;;;1.80;1.70;;;22.90;95.40;;;;;;5054711;28;20171;-82
2023/09/05 04:53:02;;;;;;;2.00;1.77;;;22.80;95.20;;;;;;5036775;28;20202;-82
2023/09/05 04:55:28;;;;;;;1.93;1.67;;;22.90;95.30;;;;;;5037211;28;20226;-82
2023/09/05 04:57:54;;;;;;;1.93;1.73;;;22.80;95.30;;;;;;5035664;28;20462;-81
2023/09/05 05:00:40;;;;;;;2.07;1.73;;;22.80;95.30;;;;;;5037034;28;20186;-82
2023/09/05 05:03:05;;;;;;;1.93;1.83;;;22.80;95.30;;;;;;5035527;28;20172;-82
2023/09/05 05:05:31;;;;;;;2.00;1.80;;;22.80;95.30;;;;;;5034459;28;20168;-82
2023/09/05 05:07:57;;;;;;;3.20;1.77;;;22.80;95.40;;;;;;5034194;28;20447;-81
2023/09/05 05:10:24;;;;;;;2.67;1.63;;;22.80;95.40;;;;;;5032739;28;20187;-82
2023/09/05 05:12:50;;;;;;;1.70;1.60;;;22.80;95.30;;;;;;5031623;28;20176;-82
2023/09/05 05:15:16;;;;;;;2.70;2.17;;;22.80;95.30;;;;;;5049638;28;20167;-82
2023/09/05 05:17:41;;;;;;;2.10;1.90;;;22.80;95.20;;;;;;5032122;28;20173;-81
2023/09/05 05:20:09;;;;;;;2.27;1.60;;;22.80;95.20;;;;;;5049765;28;20263;-81
2023/09/05 05:22:34;;;;;;;1.97;1.70;;;22.90;95.10;;;;;;5049598;28;20179;-81
2023/09/05 05:25:00;;;;;;;2.27;1.90;;;22.90;95.10;;;;;;5030601;28;20177;-82
2023/09/05 05:27:26;;;;;;;2.03;1.83;;;22.80;95.20;;;;;;5032150;28;20300;-82
2023/09/05 05:29:53;;;;;;;2.37;1.80;;;22.90;95.10;;;;;;5033751;28;20485;-82
2023/09/05 05:32:19;;;;;;;2.33;1.87;;;22.90;95.10;;;;;;5033509;28;20526;-82
2023/09/05 05:34:48;;;;;;;2.00;1.80;;;22.80;95.10;;;;;;5051543;28;20164;-82
2023/09/05 05:37:17;;;;;;;1.90;1.73;;;22.90;95.20;;;;;;5056884;28;20444;-82
2023/09/05 05:39:44;;;;;;;2.67;1.87;;;22.90;95.20;;;;;;5029491;28;20211;-82
2023/09/05 05:42:10;;;;;;;2.73;2.20;;;22.90;95.20;;;;;;5046942;28;20203;-81
2023/09/05 05:44:36;;;;;;;1.90;1.80;;;22.90;95.20;;;;;;5046558;28;20183;-82
2023/09/05 05:47:03;;;;;;;3.70;1.80;;;23.00;95.00;;;;;;5031552;28;20171;-82
2023/09/05 05:49:30;;;;;;;2.40;2.00;;;22.90;95.10;;;;;;5030765;28;20234;-82
2023/09/05 05:51:56;;;;;;;2.87;2.00;;;22.80;95.40;;;;;;5032753;28;20365;-82
2023/09/05 05:54:22;;;;;;;2.07;1.73;;;22.70;95.70;;;;;;5049557;28;20357;-81
2023/09/05 05:56:50;;;;;;;2.53;1.70;;;22.60;95.80;;;;;;5030513;28;20180;-82
2023/09/05 05:59:16;;;;;;;2.60;1.80;;;22.70;95.80;;;;;;5032476;28;20183;-82
2023/09/05 06:01:42;;;;;;;2.30;1.80;;;22.70;95.80;;;;;;5032000;28;20211;-82
2023/09/05 06:04:07;;;;;;;2.20;1.70;;;22.70;95.70;;;;;;5031198;28;20369;-82
2023/09/05 06:06:33;;;;;;;2.00;1.80;;;22.70;95.60;;;;;;5047765;28;20172;-82
2023/09/05 06:09:00;;;;;;;3.13;2.17;;;22.70;95.50;;;;;;5049214;28;20554;-82
2023/09/05 06:11:26;;;;;;;2.77;1.80;;;22.80;95.40;;;;;;5031687;28;20187;-81
2023/09/05 06:13:52;;;;;;;2.63;1.90;;;22.80;95.30;;;;;;5047845;28;20180;-82
2023/09/05 06:16:18;;;;;;;2.77;2.00;;;22.80;95.20;;;;;;5031796;28;20542;-82
2023/09/05 06:18:45;;;;;;;3.00;2.07;;;22.90;95.20;;;;;;5029878;28;20538;-82
2023/09/05 06:21:11;;;;;;;3.67;2.13;;;22.90;95.10;;;;;;5028597;28;20376;-82
2023/09/05 06:23:36;;;;;;;5.10;2.13;;;23.00;95.10;;;;;;5030264;28;20386;-82
2023/09/05 06:26:02;;;;;;;2.20;1.80;;;23.00;95.00;;;;;;5044655;28;20176;-82
2023/09/05 06:28:28;;;;;;;4.33;2.20;;;23.10;94.80;;;;;;5027148;28;20358;-82
2023/09/05 06:30:57;;;;;;;2.53;1.90;;;23.20;94.50;;;;;;5045355;28;20252;-82
2023/09/05 06:33:25;;;;;;;2.40;2.17;;;23.30;94.20;;;;;;5047144;28;20171;-82
2023/09/05 06:35:52;;;;;;;2.67;1.90;;;23.30;94.10;;;;;;5036662;28;20181;-81
2023/09/05 06:38:21;;;;;;;2.50;2.13;;;23.40;94.00;;;;;;5044399;28;20234;-82
2023/09/05 06:40:47;;;;;;;3.00;2.30;;;23.40;94.00;;;;;;5026524;28;20214;-82
2023/09/05 06:43:13;;;;;;;3.07;2.20;;;23.50;94.10;;;;;;5027845;28;20172;-82
2023/09/05 06:45:39;;;;;;;3.77;2.17;;;23.50;94.00;;;;;;5029745;28;20528;-82
2023/09/05 06:48:06;;;;;;;2.40;2.20;;;23.60;94.00;;;;;;5030566;28;20220;-82
2023/09/05 06:50:32;;;;;;;2.63;2.30;;;23.70;93.90;;;;;;5030273;28;20180;-82
2023/09/05 06:53:00;;;;;;;2.90;2.40;;;23.70;93.80;;;;;;5029684;28;20176;-82
2023/09/05 06:55:28;;;;;;;2.37;2.13;;;23.80;93.70;;;;;;5028909;28;20241;-82
2023/09/05 06:57:54;;;;;;;2.67;2.23;;;23.80;93.50;;;;;;5029905;28;20530;-82
2023/09/05 07:00:23;;;;;;;2.60;2.40;;;23.90;93.30;;;;;;5028868;28;20188;-82
2023/09/05 07:02:50;;;;;;;2.57;2.23;;;24.00;93.20;;;;;;5027928;28;20206;-82
2023/09/05 07:05:16;;;;;;;2.60;2.20;;;24.10;93.00;;;;;;5029580;28;20502;-82
2023/09/05 07:07:42;;;;;;;2.57;2.20;;;24.10;92.80;;;;;;5029458;28;20348;-82
2023/09/05 07:10:08;;;;;;;2.77;2.20;;;24.20;92.60;;;;;;5048204;28;20282;-82
2023/09/05 07:12:34;;;;;;;2.57;2.37;;;24.40;92.40;;;;;;5046716;28;20383;-82
2023/09/05 07:15:00;;;;;;;3.83;2.60;;;24.50;92.10;;;;;;5029158;28;20180;-82
2023/09/05 07:17:26;;;;;;;6.23;2.20;;;24.60;91.80;;;;;;5029885;28;20176;-82
2023/09/05 07:19:52;;;;;;;2.83;2.20;;;24.70;91.40;;;;;;5048435;28;20199;-82
2023/09/05 07:22:18;;;;;;;3.17;2.47;;;24.90;91.00;;;;;;5028977;28;20208;-82
2023/09/05 07:24:43;;;;;;;2.83;2.53;;;25.00;90.50;;;;;;5029108;28;20203;-82
2023/09/05 07:27:10;;;;;;;2.70;2.10;;;25.20;90.20;;;;;;5027008;28;20264;-82
2023/09/05 07:29:38;;;;;;;2.57;2.20;;;25.30;89.90;;;;;;5028996;28;20190;-82
2023/09/05 07:32:04;;;;;;;3.10;2.67;;;25.50;88.40;;;;;;5028609;28;20225;-82
2023/09/05 07:34:30;;;;;;;2.83;2.23;;;25.70;86.90;;;;;;5046423;28;20164;-82
2023/09/05 07:36:56;;;;;;;3.05;2.42;;;26.00;84.70;;;;;;5030863;28;20234;-82
2023/09/05 07:39:24;;;;;;;2.65;2.38;;;26.40;82.40;;;;;;5046038;28;20180;-82
2023/09/05 07:41:50;;;;;;;3.00;2.60;;;26.60;80.60;;;;;;5045015;28;20200;-83
2023/09/05 07:44:15;;;;;;;3.10;2.50;;;26.80;79.20;;;;;;5027762;28;20342;-82
2023/09/05 07:46:41;;;;;;;3.45;2.35;;;27.00;78.40;;;;;;5027597;28;20168;-82
2023/09/05 07:49:07;;;;;;;2.75;2.47;;;27.10;76.90;;;;;;5028308;28;20231;-82
2023/09/05 07:51:33;;;;;;;4.90;2.80;;;27.30;75.60;;;;;;5047373;28;20203;-82
2023/09/05 07:54:07;;;;;;;4.80;2.78;;;27.50;75.40;;;;;;5031776;28;20398;-82
2023/09/05 07:56:33;;;;;;;4.78;2.80;;;27.60;74.50;;;;;;5031800;28;20187;-82
2023/09/05 07:59:01;;;;;;;3.38;2.78;;;27.70;73.60;;;;;;5029772;28;20176;-82
2023/09/05 08:01:27;;;;;;;3.40;2.72;;;27.90;72.70;;;;;;5029936;28;20204;-81
2023/09/05 08:03:52;;;;;;;2.67;2.47;;;28.00;72.10;;;;;;5031968;28;20358;-81
2023/09/05 08:06:19;;;;;;;3.63;2.65;;;28.00;71.40;;;;;;5032175;28;20172;-82
2023/09/05 08:08:48;;;;;;;3.30;2.67;;;28.20;71.00;;;;;;5050417;28;20330;-82
2023/09/05 08:11:16;;;;;;;2.90;2.60;;;28.30;70.40;;;;;;5050407;28;20165;-82
2023/09/05 08:13:42;;;;;;;3.83;2.67;;;28.40;70.30;;;;;;5031498;28;20194;-82
2023/09/05 08:16:07;;;;;;;3.30;2.70;;;28.40;70.10;;;;;;5049801;28;20570;-82
2023/09/05 08:18:34;;;;;;;3.30;2.65;;;28.40;70.00;;;;;;5031171;28;20183;-82
2023/09/05 08:21:01;;;;;;;3.15;2.50;;;28.50;69.40;;;;;;5033208;28;20215;-82
2023/09/05 08:23:26;;;;;;;2.70;2.40;;;28.60;69.40;;;;;;5033530;28;20172;-81
2023/09/05 08:25:56;;;;;;;3.25;2.70;;;28.70;69.10;;;;;;5032957;28;20440;-82
2023/09/05 08:28:22;;;;;;;2.95;2.50;;;28.80;69.30;;;;;;5032227;28;20199;-82
2023/09/05 08:30:48;;;;;;;3.90;2.70;;;28.90;68.10;;;;;;5049737;28;20199;-82
2023/09/05 08:33:13;;;;;;;3.20;2.65;;;29.00;67.60;;;;;;5030421;28;20172;-82
2023/09/05 08:35:39;;;;;;;5.00;2.90;;;29.10;67.10;;;;;;5032589;28;20191;-82
2023/09/05 08:38:06;;;;;;;2.97;2.63;;;29.10;66.80;;;;;;5046801;28;20211;-82
2023/09/05 08:40:35;;;;;;;2.72;2.50;;;29.30;66.20;;;;;;5030900;28;20172;-82
2023/09/05 08:43:04;;;;;;;3.80;2.83;;;29.40;65.70;;;;;;5031581;28;20233;-82
2023/09/05 08:45:31;;;;;;;2.75;2.55;;;29.50;65.10;;;;;;5048461;28;20191;-82
2023/09/05 08:47:57;;;;;;;3.22;2.72;;;29.60;64.50;;;;;;5030981;28;20338;-82
2023/09/05 08:50:26;;;;;;;3.17;2.72;;;29.80;64.70;;;;;;5033181;28;20175;-82
2023/09/05 08:52:53;;;;;;;3.60;2.53;;;29.80;64.50;;;;;;5032570;28;20183;-82
2023/09/05 08:55:21;;;;;;;2.97;2.58;;;29.70;63.90;;;;;;5034270;28;20207;-82
2023/09/05 08:57:49;;;;;;;2.95;2.30;;;29.90;63.60;;;;;;5032437;28;20195;-82
2023/09/05 09:00:18;;;;;;;2.65;2.40;;;30.00;63.40;;;;;;5030356;28;20215;-82
2023/09/05 09:02:44;;;;;;;2.75;2.30;;;29.90;63.20;;;;;;5030637;28;20184;-82
2023/09/05 09:05:10;;;;;;;3.00;2.50;;;30.00;63.10;;;;;;5030447;28;20199;-82
2023/09/05 09:07:36;;;;;;;2.88;2.63;;;30.00;62.60;;;;;;5030145;28;20562;-82
2023/09/05 09:10:17;;;;;;;2.40;2.20;;;30.10;62.70;;;;;;5029148;28;20581;-82
2023/09/05 09:12:43;;;;;;;3.80;2.53;;;30.40;61.90;;;;;;5045807;28;20396;-82
2023/09/05 09:15:12;;;;;;;2.97;2.40;;;30.30;61.70;;;;;;5030026;28;20226;-82
2023/09/05 09:17:42;;;;;;;2.75;2.38;;;30.20;61.60;;;;;;5029962;28;20174;-82
2023/09/05 09:20:16;;;;;;;3.25;2.45;;;30.40;61.30;;;;;;5047024;28;20346;-82
2023/09/05 09:22:42;;;;;;;2.60;2.40;;;30.40;61.00;;;;;;5028632;28;20223;-82
2023/09/05 09:25:14;;;;;;;2.55;2.35;;;30.50;61.30;;;;;;5030201;28;20319;-82
2023/09/05 09:27:42;;;;;;;3.47;2.50;;;30.60;60.60;;;;;;5029100;28;20526;-82
2023/09/05 09:30:09;;;;;;;2.88;2.50;;;30.80;60.10;;;;;;5029217;28;20195;-82
2023/09/05 09:32:50;;;;;;;2.50;2.30;;;30.90;59.90;;;;;;5029280;28;20291;-82
2023/09/05 09:35:16;;;;;;;2.40;2.20;;;30.80;59.60;;;;;;5046975;28;20321;-81
2023/09/05 09:37:48;;;;;;;2.70;2.35;;;30.90;59.60;;;;;;5030655;28;20507;-82
2023/09/05 09:40:16;;;;;;;2.85;2.17;;;31.00;59.60;;;;;;5029014;28;20248;-82
2023/09/05 09:42:51;;;;;;;2.40;2.20;;;30.90;59.50;;;;;;5029558;28;20238;-82
2023/09/05 09:45:18;;;;;;;2.60;2.33;;;30.80;59.60;;;;;;5031836;28;20168;-82
2023/09/05 09:47:49;;;;;;;2.83;2.25;;;30.90;59.50;;;;;;5028703;28;20180;-82
2023/09/05 09:50:16;;;;;;;2.35;2.15;;;30.90;59.50;;;;;;5028598;28;20195;-82
2023/09/05 09:52:44;;;;;;;2.40;2.20;;;30.70;59.70;;;;;;5027965;28;20442;-80
2023/09/05 09:55:16;;;;;;;2.42;2.20;;;30.60;59.70;;;;;;5027570;28;20184;-82
2023/09/05 09:58:01;;;;;;;2.50;2.30;;;30.60;60.00;;;;;;5025904;28;20445;-81
2023/09/05 10:00:28;;;;;;;2.40;2.20;;;30.20;60.50;;;;;;5024879;28;20177;-82
2023/09/05 10:02:55;;;;;;;2.40;2.20;;;30.10;61.00;;;;;;5026497;28;20298;-82
2023/09/05 10:05:24;;;;;;;2.55;2.25;;;29.70;62.20;;;;;;5046966;28;20202;-81
2023/09/05 10:07:52;;;;;;;2.47;2.20;;;29.50;63.20;;;;;;5028433;28;20180;-81
2023/09/05 10:10:19;;;;;;;2.17;1.98;;;29.40;63.60;;;;;;5029602;28;20681;-82
2023/09/05 10:12:45;;;;;;;3.15;2.20;;;29.10;64.70;;;;;;5045709;28;20173;-82
2023/09/05 10:15:15;;;;;;;2.30;2.10;;;28.90;65.90;;;;;;5028801;28;20280;-82
2023/09/05 10:17:43;;;;;;;2.20;2.00;;;28.70;66.70;;;;;;5027939;28;20179;-81
2023/09/05 10:20:14;;;;;;;2.13;1.92;;;28.60;67.50;;;;;;5046094;28;20475;-82
2023/09/05 10:22:40;;;;;;;2.10;1.90;;;28.60;68.20;;;;;;5028530;28;20215;-82
2023/09/05 10:25:12;;;;;;;2.40;2.20;;;28.50;68.50;;;;;;5028978;28;20176;-82
2023/09/05 10:27:38;;;;;;;2.00;1.80;;;28.40;69.60;;;;;;5046413;28;20309;-81
2023/09/05 10:30:04;;;;;;;2.53;2.10;;;28.30;70.40;;;;;;5027248;28;20203;-81
2023/09/05 10:32:32;;;;;;;2.15;1.95;;;28.20;71.00;;;;;;5026894;28;20460;-82
2023/09/05 10:35:02;;;;;;;2.00;1.80;;;28.10;71.60;;;;;;5045265;28;20176;-81
2023/09/05 10:37:39;;;;;;;2.15;1.90;;;28.20;71.70;;;;;;5027414;28;20200;-81
2023/09/05 10:40:09;;;;;;;2.20;2.00;;;28.10;71.90;;;;;;5046395;28;20172;-82
2023/09/05 10:42:54;;;;;;;4.32;2.00;;;28.10;72.30;;;;;;5028769;28;20646;-81
2023/09/05 10:45:27;;;;;;;2.00;1.85;;;28.20;72.20;;;;;;5028341;28;20172;-81
2023/09/05 10:47:59;;;;;;;1.92;1.80;;;28.30;72.00;;;;;;5044260;28;20163;-81
2023/09/05 10:50:25;;;;;;;2.25;1.80;;;28.20;72.40;;;;;;5029060;28;20405;-81
2023/09/05 10:53:17;;;;;;;2.00;1.80;;;28.20;72.80;;;;;;5028925;28;20650;-82
2023/09/05 10:55:46;;;;;;;2.17;1.98;;;28.20;72.80;;;;;;5023907;28;20188;-81
2023/09/05 10:58:53;;;;;;;1.98;1.80;;;28.10;73.10;;;;;;5046521;28;20176;-81
2023/09/05 11:01:48;;;;;;;1.90;1.80;;;28.10;73.60;;;;;;5045153;28;20370;-81
2023/09/05 11:04:19;;;;;;;1.77;1.67;;;28.10;74.10;;;;;;5024364;28;20603;-81
2023/09/05 11:07:05;;;;;;;1.67;1.58;;;28.00;74.50;;;;;;5026350;28;20235;-81
2023/09/05 11:09:48;;;;;;;2.00;1.75;;;27.90;74.80;;;;;;5027220;28;20368;-81
2023/09/05 11:12:18;;;;;;;1.80;1.70;;;27.90;75.30;;;;;;5044266;28;20179;-81
2023/09/05 11:14:44;;;;;;;2.10;1.75;;;27.80;75.70;;;;;;5026712;28;20275;-81
2023/09/05 11:17:15;;;;;;;2.60;1.77;;;27.80;76.40;;;;;;5026187;28;20172;-81
2023/09/05 11:19:47;;;;;;;2.00;1.70;;;27.70;77.00;;;;;;5025174;28;20214;-81
2023/09/05 11:22:15;;;;;;;1.88;1.77;;;27.70;77.40;;;;;;5024682;28;20621;-80
2023/09/05 11:24:47;;;;;;;1.77;1.63;;;27.70;77.90;;;;;;5027511;28;20358;-81
2023/09/05 11:27:18;;;;;;;1.70;1.60;;;27.70;78.40;;;;;;5029414;28;20202;-81
2023/09/05 11:29:45;;;;;;;1.75;1.60;;;27.70;78.80;;;;;;5047689;28;20168;-81
2023/09/05 11:32:13;;;;;;;1.77;1.50;;;27.60;79.20;;;;;;5031474;28;20393;-81
2023/09/05 11:34:44;;;;;;;1.98;1.75;;;27.60;79.60;;;;;;5031367;28;20176;-81
2023/09/05 11:37:15;;;;;;;1.98;1.77;;;27.50;80.00;;;;;;5031198;28;20176;-81
2023/09/05 11:39:40;;;;;;;1.65;1.52;;;27.50;80.40;;;;;;5032844;28;20361;-81
2023/09/05 11:42:23;;;;;;;1.85;1.60;;;27.50;80.70;;;;;;5030903;28;20207;-81
2023/09/05 11:44:49;;;;;;;1.80;1.40;;;27.50;81.20;;;;;;5028855;28;20276;-81
2023/09/05 11:47:16;;;;;;;1.90;1.70;;;27.50;81.60;;;;;;5049131;28;20169;-81
2023/09/05 11:49:47;;;;;;;1.75;1.60;;;27.50;81.80;;;;;;5032082;28;20279;-81
2023/09/05 11:52:15;;;;;;;2.08;1.67;;;27.50;81.80;;;;;;5049968;28;20637;-81
2023/09/05 11:54:42;;;;;;;1.55;1.45;;;27.50;81.90;;;;;;5015381;28;20597;-81
2023/09/05 11:57:09;;;;;;;1.80;1.58;;;27.50;82.30;;;;;;5029594;28;20565;-81
2023/09/05 11:59:35;;;;;;;1.83;1.67;;;27.50;82.60;;;;;;5035174;28;20370;-81
2023/09/05 12:02:08;;;;;;;1.60;1.40;;;27.40;82.90;;;;;;5039141;28;20223;-82
2023/09/05 12:04:34;;;;;;;1.60;1.50;;;27.40;83.20;;;;;;5037186;28;20180;-82
2023/09/05 12:07:01;;;;;;;1.60;1.50;;;27.40;83.50;;;;;;5033431;28;20180;-81
2023/09/05 12:09:29;;;;;;;1.58;1.48;;;27.50;83.60;;;;;;5033377;28;20437;-81
2023/09/05 12:12:09;;;;;;;1.60;1.50;;;27.40;83.80;;;;;;5031162;28;20198;-80
2023/09/05 12:14:47;;;;;;;1.80;1.70;;;27.40;84.10;;;;;;5030626;28;20168;-80
2023/09/05 12:17:21;;;;;;;1.60;1.42;;;27.50;84.20;;;;;;5028550;28;20176;-81
2023/09/05 12:19:48;;;;;;;1.60;1.50;;;27.50;84.40;;;;;;5031661;28;20180;-80
2023/09/05 12:22:25;;;;;;;1.50;1.40;;;27.50;84.70;;;;;;5030927;28;20208;-81
2023/09/05 12:25:07;;;;;;;1.48;1.38;;;27.40;85.00;;;;;;5028231;28;20435;-80
2023/09/05 12:27:34;;;;;;;1.60;1.40;;;27.40;85.20;;;;;;5030908;28;20195;-80
2023/09/05 12:30:03;;;;;;;1.42;1.33;;;27.40;85.30;;;;;;5030463;28;20176;-80
2023/09/05 12:32:29;;;;;;;1.88;1.60;;;27.40;86.20;;;;;;5030861;28;20476;-80
2023/09/05 12:35:01;;;;;;;1.60;1.50;;;27.30;86.50;;;;;;5027853;28;20465;-81
2023/09/05 12:37:27;;;;;;;1.58;1.48;;;27.40;86.50;;;;;;5029834;28;20172;-81
2023/09/05 12:39:58;;;;;;;2.03;1.40;;;27.30;86.60;;;;;;5029818;28;20489;-80
2023/09/05 12:42:25;;;;;;;1.88;1.55;;;27.30;87.00;;;;;;5044838;28;20616;-81
2023/09/05 12:44:52;;;;;;;1.55;1.40;;;27.40;87.20;;;;;;5044656;28;20284;-80
2023/09/05 12:47:18;;;;;;;1.50;1.40;;;27.30;87.20;;;;;;5029317;28;20180;-80
2023/09/05 12:49:43;;;;;;;2.00;1.50;;;27.40;87.60;;;;;;5031352;28;20291;-81
2023/09/05 12:52:09;;;;;;;2.38;1.40;;;27.30;87.80;;;;;;5030844;28;20211;-80
2023/09/05 12:54:35;;;;;;;1.30;1.20;;;27.40;87.80;;;;;;5031048;28;20203;-80